sensor_id;sensor_type;location;lat;lon;timestamp;pressure;altitude;pressure_sealevel;temperature;humidity
73306;BME280;61530;51.158;0.880;2022-10-16T00:00:49;1003.73;;;12.9375;46.4865
73306;BME280;61530;51.158;0.880;2022-10-16T00:01:55;1003.74;;;12.9375;46.0503
73306;BME280;61530;51.158;0.880;2022-10-16T00:02:55;1003.73;;;13.0;46.3319
73306;BME280;61530;51.158;0.880;2022-10-16T00:04:02;1003.75;;;13.0;46.4298
73306;BME280;61530;51.158;0.880;2022-10-16T00:05:01;1003.74;;;13.0;46.9387
73306;BME280;61530;51.158;0.880;2022-10-16T00:06:08;1003.74;;;13.0;46.4348
73306;BME280;61530;51.158;0.880;2022-10-16T00:07:07;1003.7;;;13.0625;46.2053
73306;BME280;61530;51.158;0.880;2022-10-16T00:08:13;1003.7;;;13.0625;46.7551
73306;BME280;61530;51.158;0.880;2022-10-16T00:09:19;1003.69;;;13.0;46.3549
73306;BME280;61530;51.158;0.880;2022-10-16T00:10:25;1003.72;;;13.0;44.6597
73306;BME280;61530;51.158;0.880;2022-10-16T00:11:33;1003.71;;;13.0;46.1617
73306;BME280;61530;51.158;0.880;2022-10-16T00:12:31;1003.72;;;13.0;46.271
73306;BME280;61530;51.158;0.880;2022-10-16T00:13:38;1003.77;;;13.0;46.4577
73306;BME280;61530;51.158;0.880;2022-10-16T00:14:43;1003.75;;;13.0;46.7173
73306;BME280;61530;51.158;0.880;2022-10-16T00:15:43;1003.77;;;13.0;46.5181
73306;BME280;61530;51.158;0.880;2022-10-16T00:16:49;1003.76;;;13.0;47.5165
73306;BME280;61530;51.158;0.880;2022-10-16T00:17:49;1003.77;;;13.0;45.239
73306;BME280;61530;51.158;0.880;2022-10-16T00:18:55;1003.85;;;13.0625;46.8898
73306;BME280;61530;51.158;0.880;2022-10-16T00:20:01;1003.83;;;13.0;47.3577
73306;BME280;61530;51.158;0.880;2022-10-16T00:21:09;1003.8;;;13.0;45.9351
73306;BME280;61530;51.158;0.880;2022-10-16T00:22:07;1003.82;;;13.0625;46.5918
73306;BME280;61530;51.158;0.880;2022-10-16T00:23:13;1003.79;;;13.0;46.452
73306;BME280;61530;51.158;0.880;2022-10-16T00:24:19;1003.79;;;13.0;45.9637
73306;BME280;61530;51.158;0.880;2022-10-16T00:25:19;1003.71;;;13.0;45.6846
73306;BME280;61530;51.158;0.880;2022-10-16T00:26:26;1003.8;;;12.9375;46.3159
73306;BME280;61530;51.158;0.880;2022-10-16T00:27:31;1003.81;;;12.9375;46.7616
73306;BME280;61530;51.158;0.880;2022-10-16T00:28:32;1003.83;;;13.0;46.1777
73306;BME280;61530;51.158;0.880;2022-10-16T00:29:37;1003.82;;;12.9375;46.5216
73306;BME280;61530;51.158;0.880;2022-10-16T00:30:38;1003.8;;;12.9375;46.0344
73306;BME280;61530;51.158;0.880;2022-10-16T00:31:43;1003.82;;;13.0;45.9032
73306;BME280;61530;51.158;0.880;2022-10-16T00:32:49;1003.82;;;12.9375;45.2319
73306;BME280;61530;51.158;0.880;2022-10-16T00:33:55;1003.83;;;12.9375;44.9733
73306;BME280;61530;51.158;0.880;2022-10-16T00:34:55;1003.81;;;12.9375;44.9627
73306;BME280;61530;51.158;0.880;2022-10-16T00:36:02;1003.8;;;12.9375;46.3175
73306;BME280;61530;51.158;0.880;2022-10-16T00:37:01;1003.79;;;12.9375;45.7437
73306;BME280;61530;51.158;0.880;2022-10-16T00:38:07;1003.77;;;13.0;45.4408
73306;BME280;61530;51.158;0.880;2022-10-16T00:39:13;1003.77;;;12.9375;45.7886
73306;BME280;61530;51.158;0.880;2022-10-16T00:40:19;1003.8;;;12.9375;45.9963
73306;BME280;61530;51.158;0.880;2022-10-16T00:41:20;1003.78;;;13.0;45.7203
73306;BME280;61530;51.158;0.880;2022-10-16T00:42:25;1003.84;;;13.0;45.9912
73306;BME280;61530;51.158;0.880;2022-10-16T00:43:42;1003.85;;;12.9375;46.0031
73306;BME280;61530;51.158;0.880;2022-10-16T00:44:57;1003.84;;;13.0;45.9274
73306;BME280;61530;51.158;0.880;2022-10-16T00:45:25;1003.82;;;13.0;45.899
73306;BME280;61530;51.158;0.880;2022-10-16T00:46:37;1003.82;;;13.0;45.6918
73306;BME280;61530;51.158;0.880;2022-10-16T00:47:34;1003.86;;;12.9375;45.2492
73306;BME280;61530;51.158;0.880;2022-10-16T00:48:31;1003.85;;;12.9375;46.2946
73306;BME280;61530;51.158;0.880;2022-10-16T00:49:33;1003.86;;;13.0;46.0304
73306;BME280;61530;51.158;0.880;2022-10-16T00:50:34;1003.88;;;13.0;45.5248
73306;BME280;61530;51.158;0.880;2022-10-16T00:51:40;1003.92;;;12.9375;45.5992
73306;BME280;61530;51.158;0.880;2022-10-16T00:52:47;1003.91;;;13.0;46.0973
73306;BME280;61530;51.158;0.880;2022-10-16T00:53:51;1003.98;;;12.9375;45.8385
73306;BME280;61530;51.158;0.880;2022-10-16T00:54:53;1003.99;;;12.9375;45.7419
73306;BME280;61530;51.158;0.880;2022-10-16T00:55:58;1003.97;;;13.0;45.609
73306;BME280;61530;51.158;0.880;2022-10-16T00:57:05;1003.96;;;12.9375;45.5123
73306;BME280;61530;51.158;0.880;2022-10-16T00:58:09;1003.97;;;13.0;45.8401
73306;BME280;61530;51.158;0.880;2022-10-16T00:59:15;1004.0;;;12.9375;46.1904
73306;BME280;61530;51.158;0.880;2022-10-16T01:00:17;1003.99;;;12.9375;45.2149
73306;BME280;61530;51.158;0.880;2022-10-16T01:01:15;1003.99;;;12.9375;45.519
73306;BME280;61530;51.158;0.880;2022-10-16T01:02:21;1004.01;;;12.9375;45.5464
73306;BME280;61530;51.158;0.880;2022-10-16T01:03:30;1004.03;;;12.9375;45.9137
73306;BME280;61530;51.158;0.880;2022-10-16T01:04:35;1004.05;;;12.9375;45.1459
73306;BME280;61530;51.158;0.880;2022-10-16T01:05:41;1004.07;;;13.0;45.3734
73306;BME280;61530;51.158;0.880;2022-10-16T01:06:43;1004.09;;;12.9375;45.0006
73306;BME280;61530;51.158;0.880;2022-10-16T01:07:47;1004.08;;;12.9375;45.8866
73306;BME280;61530;51.158;0.880;2022-10-16T01:08:53;1004.1;;;12.9375;45.799
73306;BME280;61530;51.158;0.880;2022-10-16T01:10:02;1004.2;;;12.9375;45.9012
73306;BME280;61530;51.158;0.880;2022-10-16T01:10:59;1004.3;;;12.875;44.9383
73306;BME280;61530;51.158;0.880;2022-10-16T01:12:04;1004.45;;;12.9375;45.7391
73306;BME280;61530;51.158;0.880;2022-10-16T01:13:06;1004.4;;;13.0;45.4715
73306;BME280;61530;51.158;0.880;2022-10-16T01:14:08;1004.35;;;12.875;46.8688
73306;BME280;61530;51.158;0.880;2022-10-16T01:15:08;1004.35;;;12.9375;46.7497
73306;BME280;61530;51.158;0.880;2022-10-16T01:16:07;1004.41;;;12.9375;47.287
73306;BME280;61530;51.158;0.880;2022-10-16T01:17:08;1004.38;;;12.875;47.0453
73306;BME280;61530;51.158;0.880;2022-10-16T01:18:14;1004.39;;;12.9375;46.0995
73306;BME280;61530;51.158;0.880;2022-10-16T01:19:13;1004.47;;;12.9375;49.3269
73306;BME280;61530;51.158;0.880;2022-10-16T01:20:22;1004.56;;;12.875;47.7535
73306;BME280;61530;51.158;0.880;2022-10-16T01:21:19;1004.56;;;12.875;49.2488
73306;BME280;61530;51.158;0.880;2022-10-16T01:22:15;1004.53;;;12.9375;49.011
73306;BME280;61530;51.158;0.880;2022-10-16T01:23:31;1004.51;;;12.875;48.1966
73306;BME280;61530;51.158;0.880;2022-10-16T01:24:30;1004.43;;;12.8125;50.6097
73306;BME280;61530;51.158;0.880;2022-10-16T01:25:29;1004.31;;;12.8125;49.1557
73306;BME280;61530;51.158;0.880;2022-10-16T01:26:37;1004.29;;;12.8125;51.1502
73306;BME280;61530;51.158;0.880;2022-10-16T01:27:28;1004.21;;;12.8125;50.7603
73306;BME280;61530;51.158;0.880;2022-10-16T01:28:38;1004.25;;;12.8125;47.1175
73306;BME280;61530;51.158;0.880;2022-10-16T01:29:45;1004.23;;;12.8125;49.9301
73306;BME280;61530;51.158;0.880;2022-10-16T01:30:42;1004.26;;;12.8125;48.1591
73306;BME280;61530;51.158;0.880;2022-10-16T01:31:50;1004.3;;;12.75;47.5534
73306;BME280;61530;51.158;0.880;2022-10-16T01:32:50;1004.34;;;12.8125;46.2531
73306;BME280;61530;51.158;0.880;2022-10-16T01:33:58;1004.33;;;12.8125;50.2134
73306;BME280;61530;51.158;0.880;2022-10-16T01:34:57;1004.37;;;12.8125;48.5957
73306;BME280;61530;51.158;0.880;2022-10-16T01:36:03;1004.33;;;12.875;47.7207
73306;BME280;61530;51.158;0.880;2022-10-16T01:37:04;1004.35;;;12.8125;50.1645
73306;BME280;61530;51.158;0.880;2022-10-16T01:38:10;1004.3;;;12.875;48.7527
73306;BME280;61530;51.158;0.880;2022-10-16T01:39:08;1004.29;;;12.8125;48.9642
73306;BME280;61530;51.158;0.880;2022-10-16T01:40:10;1004.33;;;12.75;49.6733
73306;BME280;61530;51.158;0.880;2022-10-16T01:41:09;1004.37;;;12.8125;49.2139
73306;BME280;61530;51.158;0.880;2022-10-16T01:42:16;1004.4;;;12.8125;48.6533
73306;BME280;61530;51.158;0.880;2022-10-16T01:43:15;1004.38;;;12.8125;48.2028
73306;BME280;61530;51.158;0.880;2022-10-16T01:44:21;1004.35;;;12.875;49.8194
73306;BME280;61530;51.158;0.880;2022-10-16T01:45:23;1004.3;;;12.875;49.1334
73306;BME280;61530;51.158;0.880;2022-10-16T01:46:28;1004.32;;;12.8125;48.5244
73306;BME280;61530;51.158;0.880;2022-10-16T01:47:30;1004.29;;;12.875;49.0487
73306;BME280;61530;51.158;0.880;2022-10-16T01:48:35;1004.3;;;12.875;48.9354
73306;BME280;61530;51.158;0.880;2022-10-16T01:49:41;1004.32;;;12.8125;47.2314
73306;BME280;61530;51.158;0.880;2022-10-16T01:50:43;1004.38;;;12.875;48.5872
73306;BME280;61530;51.158;0.880;2022-10-16T01:51:49;1004.37;;;12.8125;49.2937
73306;BME280;61530;51.158;0.880;2022-10-16T01:52:54;1004.4;;;12.875;49.2944
73306;BME280;61530;51.158;0.880;2022-10-16T01:53:55;1004.45;;;12.8125;49.176
73306;BME280;61530;51.158;0.880;2022-10-16T01:55:01;1004.41;;;12.875;48.4246
73306;BME280;61530;51.158;0.880;2022-10-16T01:56:08;1004.39;;;12.8125;48.7675
73306;BME280;61530;51.158;0.880;2022-10-16T01:57:06;1004.39;;;12.75;48.7477
73306;BME280;61530;51.158;0.880;2022-10-16T01:58:07;1004.39;;;12.875;48.7134
73306;BME280;61530;51.158;0.880;2022-10-16T01:59:13;1004.36;;;12.8125;47.1239
73306;BME280;61530;51.158;0.880;2022-10-16T02:00:19;1004.36;;;12.8125;48.133
73306;BME280;61530;51.158;0.880;2022-10-16T02:01:26;1004.32;;;12.875;48.4649
73306;BME280;61530;51.158;0.880;2022-10-16T02:02:29;1004.32;;;12.875;47.95
73306;BME280;61530;51.158;0.880;2022-10-16T02:03:29;1004.33;;;12.875;48.59
73306;BME280;61530;51.158;0.880;2022-10-16T02:04:38;1004.33;;;12.8125;47.9616
73306;BME280;61530;51.158;0.880;2022-10-16T02:05:45;1004.37;;;12.875;47.5559
73306;BME280;61530;51.158;0.880;2022-10-16T02:06:41;1004.36;;;12.8125;46.7771
73306;BME280;61530;51.158;0.880;2022-10-16T02:07:47;1004.39;;;12.8125;47.6455
73306;BME280;61530;51.158;0.880;2022-10-16T02:08:53;1004.4;;;12.8125;47.533
73306;BME280;61530;51.158;0.880;2022-10-16T02:09:53;1004.41;;;12.75;47.9618
73306;BME280;61530;51.158;0.880;2022-10-16T02:11:00;1004.39;;;12.8125;48.1892
73306;BME280;61530;51.158;0.880;2022-10-16T02:12:10;1004.38;;;12.8125;47.212
73306;BME280;61530;51.158;0.880;2022-10-16T02:13:08;1004.36;;;12.8125;47.4814
73306;BME280;61530;51.158;0.880;2022-10-16T02:14:11;1004.35;;;12.875;47.7671
73306;BME280;61530;51.158;0.880;2022-10-16T02:15:11;1004.35;;;12.75;47.2521
73306;BME280;61530;51.158;0.880;2022-10-16T02:16:17;1004.33;;;12.875;48.0479
73306;BME280;61530;51.158;0.880;2022-10-16T02:17:18;1004.33;;;12.875;47.5433
73306;BME280;61530;51.158;0.880;2022-10-16T02:18:23;1004.34;;;12.8125;47.9279
73306;BME280;61530;51.158;0.880;2022-10-16T02:19:29;1004.34;;;12.8125;48.053
73306;BME280;61530;51.158;0.880;2022-10-16T02:20:40;1004.35;;;12.875;47.8935
73306;BME280;61530;51.158;0.880;2022-10-16T02:21:41;1004.37;;;12.875;47.9156
73306;BME280;61530;51.158;0.880;2022-10-16T02:22:43;1004.4;;;12.8125;47.5383
73306;BME280;61530;51.158;0.880;2022-10-16T02:23:57;1004.39;;;12.8125;47.2867
73306;BME280;61530;51.158;0.880;2022-10-16T02:24:57;1004.42;;;12.8125;47.4535
73306;BME280;61530;51.158;0.880;2022-10-16T02:25:54;1004.44;;;12.8125;47.4403
73306;BME280;61530;51.158;0.880;2022-10-16T02:27:00;1004.48;;;12.875;47.367
73306;BME280;61530;51.158;0.880;2022-10-16T02:28:02;1004.53;;;12.875;47.4694
73306;BME280;61530;51.158;0.880;2022-10-16T02:29:08;1004.54;;;12.875;48.2873
73306;BME280;61530;51.158;0.880;2022-10-16T02:30:08;1004.53;;;12.9375;46.5815
73306;BME280;61530;51.158;0.880;2022-10-16T02:31:13;1004.55;;;12.8125;47.0112
73306;BME280;61530;51.158;0.880;2022-10-16T02:32:21;1004.56;;;12.875;47.2914
73306;BME280;61530;51.158;0.880;2022-10-16T02:33:24;1004.56;;;12.9375;47.2284
73306;BME280;61530;51.158;0.880;2022-10-16T02:34:24;1004.58;;;12.875;47.3927
73306;BME280;61530;51.158;0.880;2022-10-16T02:35:30;1004.61;;;12.8125;47.3644
73306;BME280;61530;51.158;0.880;2022-10-16T02:36:29;1004.62;;;12.8125;47.5524
73306;BME280;61530;51.158;0.880;2022-10-16T02:37:35;1004.65;;;12.875;47.6545
73306;BME280;61530;51.158;0.880;2022-10-16T02:38:41;1004.68;;;12.875;47.1147
73306;BME280;61530;51.158;0.880;2022-10-16T02:39:41;1004.66;;;12.875;47.4473
73306;BME280;61530;51.158;0.880;2022-10-16T02:40:47;1004.68;;;12.875;47.8123
73306;BME280;61530;51.158;0.880;2022-10-16T02:41:53;1004.66;;;12.875;47.6285
73306;BME280;61530;51.158;0.880;2022-10-16T02:42:54;1004.68;;;12.875;48.0515
73306;BME280;61530;51.158;0.880;2022-10-16T02:43:59;1004.73;;;12.875;48.2983
73306;BME280;61530;51.158;0.880;2022-10-16T02:45:07;1004.76;;;12.875;47.9965
73306;BME280;61530;51.158;0.880;2022-10-16T02:46:05;1004.77;;;12.875;48.5827
73306;BME280;61530;51.158;0.880;2022-10-16T02:47:05;1004.82;;;12.875;48.171
73306;BME280;61530;51.158;0.880;2022-10-16T02:48:11;1004.86;;;12.9375;48.4222
73306;BME280;61530;51.158;0.880;2022-10-16T02:49:10;1004.86;;;12.875;48.2501
73306;BME280;61530;51.158;0.880;2022-10-16T02:50:17;1004.85;;;12.875;48.1014
73306;BME280;61530;51.158;0.880;2022-10-16T02:51:22;1004.84;;;12.875;48.2739
73306;BME280;61530;51.158;0.880;2022-10-16T02:52:29;1004.85;;;12.9375;48.0797
73306;BME280;61530;51.158;0.880;2022-10-16T02:53:35;1004.86;;;12.8125;45.679
73306;BME280;61530;51.158;0.880;2022-10-16T02:54:41;1004.87;;;12.75;48.3206
73306;BME280;61530;51.158;0.880;2022-10-16T02:55:41;1004.88;;;12.875;47.5365
73306;BME280;61530;51.158;0.880;2022-10-16T02:56:43;1004.86;;;12.8125;47.1295
73306;BME280;61530;51.158;0.880;2022-10-16T02:57:43;1004.86;;;12.8125;47.8712
73306;BME280;61530;51.158;0.880;2022-10-16T02:58:48;1004.84;;;12.8125;47.6094
73306;BME280;61530;51.158;0.880;2022-10-16T02:59:55;1004.83;;;12.8125;48.5643
73306;BME280;61530;51.158;0.880;2022-10-16T03:01:00;1004.87;;;12.8125;48.2009
73306;BME280;61530;51.158;0.880;2022-10-16T03:02:00;1004.92;;;12.75;47.8461
73306;BME280;61530;51.158;0.880;2022-10-16T03:03:07;1004.95;;;12.8125;47.6917
73306;BME280;61530;51.158;0.880;2022-10-16T03:04:12;1004.98;;;12.875;47.954
73306;BME280;61530;51.158;0.880;2022-10-16T03:05:19;1004.98;;;12.8125;47.2054
73306;BME280;61530;51.158;0.880;2022-10-16T03:06:25;1004.98;;;12.8125;46.741
73306;BME280;61530;51.158;0.880;2022-10-16T03:07:31;1004.99;;;12.75;46.8444
73306;BME280;61530;51.158;0.880;2022-10-16T03:08:31;1004.98;;;12.8125;47.2851
73306;BME280;61530;51.158;0.880;2022-10-16T03:09:37;1004.99;;;12.75;48.4544
73306;BME280;61530;51.158;0.880;2022-10-16T03:10:43;1005.01;;;12.75;48.4534
73306;BME280;61530;51.158;0.880;2022-10-16T03:11:43;1005.04;;;12.75;47.9202
73306;BME280;61530;51.158;0.880;2022-10-16T03:12:49;1005.04;;;12.75;47.6852
73306;BME280;61530;51.158;0.880;2022-10-16T03:13:55;1005.04;;;12.75;45.9031
73306;BME280;61530;51.158;0.880;2022-10-16T03:14:55;1005.03;;;12.8125;48.1407
73306;BME280;61530;51.158;0.880;2022-10-16T03:16:01;1005.06;;;12.8125;47.7007
73306;BME280;61530;51.158;0.880;2022-10-16T03:17:01;1005.05;;;12.75;47.6202
73306;BME280;61530;51.158;0.880;2022-10-16T03:18:07;1005.07;;;12.75;48.2947
73306;BME280;61530;51.158;0.880;2022-10-16T03:19:13;1005.08;;;12.75;47.9865
73306;BME280;61530;51.158;0.880;2022-10-16T03:20:19;1005.09;;;12.75;48.2942
73306;BME280;61530;51.158;0.880;2022-10-16T03:21:19;1005.1;;;12.75;45.5667
73306;BME280;61530;51.158;0.880;2022-10-16T03:22:25;1005.12;;;12.75;47.4066
73306;BME280;61530;51.158;0.880;2022-10-16T03:23:25;1005.12;;;12.75;49.1844
73306;BME280;61530;51.158;0.880;2022-10-16T03:24:31;1005.16;;;12.6875;49.4815
73306;BME280;61530;51.158;0.880;2022-10-16T03:25:37;1005.12;;;12.75;50.0209
73306;BME280;61530;51.158;0.880;2022-10-16T03:26:43;1005.14;;;12.6875;48.2977
73306;BME280;61530;51.158;0.880;2022-10-16T03:27:43;1005.16;;;12.75;50.1305
73306;BME280;61530;51.158;0.880;2022-10-16T03:28:49;1005.17;;;12.625;50.2063
73306;BME280;61530;51.158;0.880;2022-10-16T03:29:55;1005.2;;;12.625;51.1578
73306;BME280;61530;51.158;0.880;2022-10-16T03:30:55;1005.19;;;12.6875;49.3278
73306;BME280;61530;51.158;0.880;2022-10-16T03:32:01;1005.22;;;12.6875;49.4774
73306;BME280;61530;51.158;0.880;2022-10-16T03:33:07;1005.26;;;12.6875;49.978
73306;BME280;61530;51.158;0.880;2022-10-16T03:34:07;1005.26;;;12.6875;49.7306
73306;BME280;61530;51.158;0.880;2022-10-16T03:35:13;1005.25;;;12.625;48.9185
73306;BME280;61530;51.158;0.880;2022-10-16T03:36:19;1005.27;;;12.6875;48.7687
73306;BME280;61530;51.158;0.880;2022-10-16T03:37:19;1005.31;;;12.6875;48.8319
73306;BME280;61530;51.158;0.880;2022-10-16T03:38:25;1005.33;;;12.625;49.4164
73306;BME280;61530;51.158;0.880;2022-10-16T03:39:31;1005.35;;;12.625;47.8434
73306;BME280;61530;51.158;0.880;2022-10-16T03:40:31;1005.33;;;12.625;46.7095
73306;BME280;61530;51.158;0.880;2022-10-16T03:41:37;1005.32;;;12.625;49.4704
73306;BME280;61530;51.158;0.880;2022-10-16T03:42:44;1005.34;;;12.625;48.5521
73306;BME280;61530;51.158;0.880;2022-10-16T03:43:43;1005.36;;;12.5625;49.5509
73306;BME280;61530;51.158;0.880;2022-10-16T03:44:49;1005.36;;;12.5625;48.6485
73306;BME280;61530;51.158;0.880;2022-10-16T03:45:55;1005.36;;;12.625;47.3413
73306;BME280;61530;51.158;0.880;2022-10-16T03:46:55;1005.39;;;12.625;47.1588
73306;BME280;61530;51.158;0.880;2022-10-16T03:48:01;1005.37;;;12.6875;49.6474
73306;BME280;61530;51.158;0.880;2022-10-16T03:49:03;1005.4;;;12.625;47.1879
73306;BME280;61530;51.158;0.880;2022-10-16T03:50:09;1005.46;;;12.5625;49.2438
73306;BME280;61530;51.158;0.880;2022-10-16T03:51:15;1005.43;;;12.5625;48.627
73306;BME280;61530;51.158;0.880;2022-10-16T03:52:20;1005.48;;;12.5625;48.3564
73306;BME280;61530;51.158;0.880;2022-10-16T03:53:21;1005.47;;;12.5625;48.5523
73306;BME280;61530;51.158;0.880;2022-10-16T03:54:27;1005.46;;;12.625;48.1308
73306;BME280;61530;51.158;0.880;2022-10-16T03:55:32;1005.48;;;12.6875;46.8292
73306;BME280;61530;51.158;0.880;2022-10-16T03:56:33;1005.48;;;12.5625;49.8969
73306;BME280;61530;51.158;0.880;2022-10-16T03:57:33;1005.5;;;12.625;49.2606
73306;BME280;61530;51.158;0.880;2022-10-16T03:58:39;1005.53;;;12.5625;48.7337
73306;BME280;61530;51.158;0.880;2022-10-16T03:59:45;1005.52;;;12.5625;48.97
73306;BME280;61530;51.158;0.880;2022-10-16T04:00:51;1005.55;;;12.625;47.9725
73306;BME280;61530;51.158;0.880;2022-10-16T04:01:56;1005.54;;;12.5625;47.039
73306;BME280;61530;51.158;0.880;2022-10-16T04:02:57;1005.55;;;12.5625;48.2744
73306;BME280;61530;51.158;0.880;2022-10-16T04:04:03;1005.56;;;12.625;47.7562
73306;BME280;61530;51.158;0.880;2022-10-16T04:05:08;1005.59;;;12.5625;47.2787
73306;BME280;61530;51.158;0.880;2022-10-16T04:06:09;1005.64;;;12.5;48.6449
73306;BME280;61530;51.158;0.880;2022-10-16T04:07:15;1005.64;;;12.5;48.2732
73306;BME280;61530;51.158;0.880;2022-10-16T04:08:20;1005.64;;;12.5625;46.7602
73306;BME280;61530;51.158;0.880;2022-10-16T04:09:21;1005.64;;;12.625;47.2357
73306;BME280;61530;51.158;0.880;2022-10-16T04:10:21;1005.69;;;12.5625;46.9728
73306;BME280;61530;51.158;0.880;2022-10-16T04:11:27;1005.7;;;12.625;47.6153
73306;BME280;61530;51.158;0.880;2022-10-16T04:12:33;1005.73;;;12.5625;45.8161
73306;BME280;61530;51.158;0.880;2022-10-16T04:13:39;1005.67;;;12.625;47.3691
73306;BME280;61530;51.158;0.880;2022-10-16T04:14:44;1005.68;;;12.5625;47.8093
73306;BME280;61530;51.158;0.880;2022-10-16T04:15:45;1005.71;;;12.5625;47.1982
73306;BME280;61530;51.158;0.880;2022-10-16T04:16:45;1005.75;;;12.625;46.6826
73306;BME280;61530;51.158;0.880;2022-10-16T04:17:51;1005.78;;;12.625;47.7395
73306;BME280;61530;51.158;0.880;2022-10-16T04:18:57;1005.81;;;12.5625;47.3977
73306;BME280;61530;51.158;0.880;2022-10-16T04:20:04;1005.8;;;12.625;45.7899
73306;BME280;61530;51.158;0.880;2022-10-16T04:21:04;1005.81;;;12.625;46.599
73306;BME280;61530;51.158;0.880;2022-10-16T04:22:09;1005.81;;;12.6875;46.4376
73306;BME280;61530;51.158;0.880;2022-10-16T04:23:15;1005.8;;;12.625;46.3814
73306;BME280;61530;51.158;0.880;2022-10-16T04:24:20;1005.8;;;12.625;47.0033
73306;BME280;61530;51.158;0.880;2022-10-16T04:25:21;1005.81;;;12.5625;45.6568
73306;BME280;61530;51.158;0.880;2022-10-16T04:26:27;1005.84;;;12.625;45.8009
73306;BME280;61530;51.158;0.880;2022-10-16T04:27:33;1005.87;;;12.5625;46.7725
73306;BME280;61530;51.158;0.880;2022-10-16T04:28:33;1005.89;;;12.5625;46.4468
73306;BME280;61530;51.158;0.880;2022-10-16T04:29:39;1005.91;;;12.5625;47.2544
73306;BME280;61530;51.158;0.880;2022-10-16T04:30:44;1005.91;;;12.625;46.6478
73306;BME280;61530;51.158;0.880;2022-10-16T04:31:45;1005.93;;;12.5625;46.1712
73306;BME280;61530;51.158;0.880;2022-10-16T04:32:51;1005.93;;;12.625;47.1107
73306;BME280;61530;51.158;0.880;2022-10-16T04:33:56;1005.95;;;12.5625;47.0608
73306;BME280;61530;51.158;0.880;2022-10-16T04:34:57;1005.99;;;12.5625;44.6143
73306;BME280;61530;51.158;0.880;2022-10-16T04:35:58;1005.98;;;12.5625;46.0455
73306;BME280;61530;51.158;0.880;2022-10-16T04:37:02;1005.98;;;12.5625;46.1384
73306;BME280;61530;51.158;0.880;2022-10-16T04:38:03;1006.01;;;12.5625;47.155
73306;BME280;61530;51.158;0.880;2022-10-16T04:39:09;1006.02;;;12.5;46.3535
73306;BME280;61530;51.158;0.880;2022-10-16T04:40:15;1006.01;;;12.5;46.3837
73306;BME280;61530;51.158;0.880;2022-10-16T04:41:21;1006.0;;;12.5;45.9194
73306;BME280;61530;51.158;0.880;2022-10-16T04:42:27;1006.04;;;12.5625;45.7236
73306;BME280;61530;51.158;0.880;2022-10-16T04:43:33;1006.04;;;12.5;46.555
73306;BME280;61530;51.158;0.880;2022-10-16T04:44:33;1006.05;;;12.5;45.7613
73306;BME280;61530;51.158;0.880;2022-10-16T04:45:39;1006.03;;;12.5;47.4441
73306;BME280;61530;51.158;0.880;2022-10-16T04:46:44;1006.05;;;12.5;47.3346
73306;BME280;61530;51.158;0.880;2022-10-16T04:47:45;1006.11;;;12.4375;46.9794
73306;BME280;61530;51.158;0.880;2022-10-16T04:48:51;1006.18;;;12.4375;46.9022
73306;BME280;61530;51.158;0.880;2022-10-16T04:49:56;1006.14;;;12.4375;45.1787
73306;BME280;61530;51.158;0.880;2022-10-16T04:50:57;1006.15;;;12.5;47.072
73306;BME280;61530;51.158;0.880;2022-10-16T04:52:03;1006.19;;;12.5;46.6341
73306;BME280;61530;51.158;0.880;2022-10-16T04:53:03;1006.23;;;12.5;47.7659
73306;BME280;61530;51.158;0.880;2022-10-16T04:54:09;1006.22;;;12.4375;47.2229
73306;BME280;61530;51.158;0.880;2022-10-16T04:55:15;1006.26;;;12.4375;46.9867
73306;BME280;61530;51.158;0.880;2022-10-16T04:56:20;1006.32;;;12.5;46.959
73306;BME280;61530;51.158;0.880;2022-10-16T04:57:21;1006.34;;;12.4375;46.5056
73306;BME280;61530;51.158;0.880;2022-10-16T04:58:27;1006.36;;;12.5;46.6102
73306;BME280;61530;51.158;0.880;2022-10-16T04:59:32;1006.41;;;12.5;45.6041
73306;BME280;61530;51.158;0.880;2022-10-16T05:00:33;1006.44;;;12.5;45.8516
73306;BME280;61530;51.158;0.880;2022-10-16T05:01:39;1006.45;;;12.5;45.3472
73306;BME280;61530;51.158;0.880;2022-10-16T05:02:44;1006.45;;;12.5;44.5166
73306;BME280;61530;51.158;0.880;2022-10-16T05:03:45;1006.48;;;12.5;46.3548
73306;BME280;61530;51.158;0.880;2022-10-16T05:04:51;1006.46;;;12.5;46.6715
73306;BME280;61530;51.158;0.880;2022-10-16T05:05:56;1006.5;;;12.5625;46.2317
73306;BME280;61530;51.158;0.880;2022-10-16T05:06:57;1006.49;;;12.5;46.026
73306;BME280;61530;51.158;0.880;2022-10-16T05:07:57;1006.5;;;12.5625;47.0757
73306;BME280;61530;51.158;0.880;2022-10-16T05:09:03;1006.57;;;12.5;47.3079
73306;BME280;61530;51.158;0.880;2022-10-16T05:10:09;1006.58;;;12.5;47.4044
73306;BME280;61530;51.158;0.880;2022-10-16T05:11:15;1006.59;;;12.5;46.5741
73306;BME280;61530;51.158;0.880;2022-10-16T05:12:20;1006.6;;;12.5;47.928
73306;BME280;61530;51.158;0.880;2022-10-16T05:13:21;1006.62;;;12.5;46.7558
73306;BME280;61530;51.158;0.880;2022-10-16T05:14:21;1006.65;;;12.5;46.9632
73306;BME280;61530;51.158;0.880;2022-10-16T05:15:26;1006.65;;;12.5;46.5701
73306;BME280;61530;51.158;0.880;2022-10-16T05:16:33;1006.67;;;12.5625;47.026
73306;BME280;61530;51.158;0.880;2022-10-16T05:17:39;1006.66;;;12.5;46.636
73306;BME280;61530;51.158;0.880;2022-10-16T05:18:44;1006.67;;;12.5;45.0335
73306;BME280;61530;51.158;0.880;2022-10-16T05:19:45;1006.68;;;12.5;45.6705
73306;BME280;61530;51.158;0.880;2022-10-16T05:20:51;1006.7;;;12.5;46.1127
73306;BME280;61530;51.158;0.880;2022-10-16T05:21:56;1006.71;;;12.5;45.9274
73306;BME280;61530;51.158;0.880;2022-10-16T05:22:57;1006.76;;;12.4375;46.5594
73306;BME280;61530;51.158;0.880;2022-10-16T05:24:03;1006.75;;;12.4375;45.1914
73306;BME280;61530;51.158;0.880;2022-10-16T05:25:04;1006.75;;;12.4375;47.19
73306;BME280;61530;51.158;0.880;2022-10-16T05:26:09;1006.75;;;12.375;46.035
73306;BME280;61530;51.158;0.880;2022-10-16T05:27:10;1006.78;;;12.375;46.6665
73306;BME280;61530;51.158;0.880;2022-10-16T05:28:15;1006.76;;;12.375;46.6997
73306;BME280;61530;51.158;0.880;2022-10-16T05:29:21;1006.76;;;12.4375;46.2936
73306;BME280;61530;51.158;0.880;2022-10-16T05:30:27;1006.71;;;12.375;46.8386